Time;durP1;ratioP1;P1;durP2;ratioP2;P2;SDS_P1;SDS_P2;PMS_P1;PMS_P2;Temp;Humidity;BMP_temperature;BMP_pressure;BME280_temperature;BME280_humidity;BME280_pressure;Samples;Min_cycle;Max_cycle;Signal;HPM_P1;HPM_P2
2021/01/20 00:01:53;;;;;;;52.75;28.95;;;;;;;;;;5073690;28;20034;-76
2021/01/20 00:04:19;;;;;;;58.15;31.63;;;;;;;;;;5066538;28;20025;-71
2021/01/20 00:06:45;;;;;;;50.47;25.88;;;;;;;;;;5073910;28;20025;-75
2021/01/20 00:09:11;;;;;;;47.50;28.35;;;;;;;;;;5074216;28;20431;-73
2021/01/20 00:11:37;;;;;;;55.00;28.75;;;;;;;;;;5074499;28;20103;-73
2021/01/20 00:14:03;;;;;;;52.30;29.08;;;;;;;;;;5070953;28;20028;-73
2021/01/20 00:16:29;;;;;;;52.00;28.92;;;;;;;;;;5062193;28;20028;-73
2021/01/20 00:18:55;;;;;;;50.90;28.25;;;;;;;;;;5046879;28;20032;-74
2021/01/20 00:21:21;;;;;;;55.35;28.10;;;;;;;;;;5073896;28;20021;-70
2021/01/20 00:23:47;;;;;;;49.80;29.33;;;;;;;;;;5072475;28;20527;-72
2021/01/20 00:26:13;;;;;;;51.45;27.63;;;;;;;;;;5073576;28;20048;-72
2021/01/20 00:28:39;;;;;;;53.05;27.02;;;;;;;;;;5041969;28;20025;-74
2021/01/20 00:31:05;;;;;;;40.20;25.08;;;;;;;;;;5066808;28;20100;-74
2021/01/20 00:33:32;;;;;;;46.20;27.73;;;;;;;;;;5073762;28;20540;-72
2021/01/20 00:35:58;;;;;;;44.55;25.10;;;;;;;;;;5074000;28;20017;-72
2021/01/20 00:38:24;;;;;;;40.83;24.60;;;;;;;;;;5074147;28;20032;-73
2021/01/20 00:40:50;;;;;;;46.05;25.25;;;;;;;;;;5040269;28;20056;-73
2021/01/20 00:43:17;;;;;;;43.55;23.50;;;;;;;;;;5073749;28;20020;-72
2021/01/20 00:45:43;;;;;;;47.40;26.23;;;;;;;;;;5074176;28;20077;-72
2021/01/20 00:48:10;;;;;;;39.25;23.13;;;;;;;;;;5073287;28;20096;-72
2021/01/20 00:50:36;;;;;;;45.35;24.25;;;;;;;;;;5073965;28;20219;-72
2021/01/20 00:53:02;;;;;;;43.92;23.77;;;;;;;;;;5037169;28;20089;-74
2021/01/20 00:55:28;;;;;;;45.85;26.48;;;;;;;;;;5070783;28;20031;-71
2021/01/20 00:57:55;;;;;;;44.67;25.27;;;;;;;;;;5073501;28;20050;-73
2021/01/20 01:00:21;;;;;;;52.53;25.77;;;;;;;;;;5073397;28;20154;-73
2021/01/20 01:02:49;;;;;;;49.03;25.33;;;;;;;;;;5073427;28;20048;-72
2021/01/20 01:05:15;;;;;;;40.55;24.05;;;;;;;;;;5055704;28;20025;-72
2021/01/20 01:07:41;;;;;;;43.97;22.42;;;;;;;;;;5073505;28;20039;-73
2021/01/20 01:10:08;;;;;;;43.50;23.63;;;;;;;;;;5073386;28;20518;-73
2021/01/20 01:12:34;;;;;;;38.97;20.30;;;;;;;;;;5073543;28;20078;-73
2021/01/20 01:15:00;;;;;;;42.33;24.90;;;;;;;;;;5072897;28;20389;-73
2021/01/20 01:17:26;;;;;;;42.10;23.23;;;;;;;;;;5073521;28;20046;-70
2021/01/20 01:19:52;;;;;;;40.08;23.67;;;;;;;;;;5073145;28;20052;-72
2021/01/20 01:22:18;;;;;;;44.60;23.30;;;;;;;;;;5073276;28;20032;-73
2021/01/20 01:24:44;;;;;;;39.00;22.00;;;;;;;;;;5073612;28;20039;-72
2021/01/20 01:27:10;;;;;;;37.60;22.73;;;;;;;;;;5073508;28;20358;-73
2021/01/20 01:29:36;;;;;;;43.83;23.58;;;;;;;;;;5072767;28;20446;-73
2021/01/20 01:32:02;;;;;;;38.70;22.02;;;;;;;;;;5073384;28;20021;-73
2021/01/20 01:34:28;;;;;;;40.95;21.42;;;;;;;;;;5073171;28;20529;-73
2021/01/20 01:36:54;;;;;;;40.85;23.85;;;;;;;;;;5072928;28;20059;-73
2021/01/20 01:39:20;;;;;;;35.63;19.42;;;;;;;;;;5055344;28;20029;-73
2021/01/20 01:41:46;;;;;;;37.15;21.33;;;;;;;;;;5073188;28;20036;-73
2021/01/20 01:44:12;;;;;;;38.17;22.48;;;;;;;;;;5055108;28;20024;-73
2021/01/20 01:46:38;;;;;;;37.72;19.10;;;;;;;;;;5073159;28;20031;-72
2021/01/20 01:49:05;;;;;;;34.60;20.95;;;;;;;;;;5066696;28;20028;-73
2021/01/20 01:51:31;;;;;;;34.65;20.63;;;;;;;;;;5065190;28;20036;-72
2021/01/20 01:53:57;;;;;;;33.38;19.35;;;;;;;;;;5072773;28;20020;-72
2021/01/20 01:56:26;;;;;;;35.25;20.63;;;;;;;;;;5072981;28;20377;-73
2021/01/20 01:58:52;;;;;;;31.65;19.00;;;;;;;;;;5058380;28;20103;-74
2021/01/20 02:01:21;;;;;;;36.78;19.52;;;;;;;;;;5077060;28;20028;-71
2021/01/20 02:03:48;;;;;;;40.30;20.80;;;;;;;;;;5076702;28;20025;-71
2021/01/20 02:06:15;;;;;;;33.90;18.95;;;;;;;;;;5076872;28;20055;-72
2021/01/20 02:08:41;;;;;;;31.77;19.58;;;;;;;;;;5076926;28;20024;-73
2021/01/20 02:11:25;;;;;;;34.17;19.58;;;;;;;;;;5076698;28;20029;-72
2021/01/20 02:13:57;;;;;;;32.60;19.05;;;;;;;;;;5080951;28;20109;-73
2021/01/20 02:16:24;;;;;;;31.17;17.40;;;;;;;;;;5085077;28;20056;-75
2021/01/20 02:18:52;;;;;;;34.90;18.20;;;;;;;;;;5058947;28;20477;-73
2021/01/20 02:21:33;;;;;;;36.72;20.42;;;;;;;;;;5076863;28;20043;-73
2021/01/20 02:24:00;;;;;;;34.10;19.85;;;;;;;;;;5059005;28;20024;-74
2021/01/20 02:26:30;;;;;;;35.42;20.10;;;;;;;;;;5076072;28;20122;-74
2021/01/20 02:29:19;;;;;;;34.72;19.65;;;;;;;;;;5076831;28;20016;-74
2021/01/20 02:31:47;;;;;;;30.88;17.38;;;;;;;;;;5034608;28;20037;-76
2021/01/20 02:34:15;;;;;;;37.55;19.83;;;;;;;;;;5067289;28;20494;-75
2021/01/20 02:36:42;;;;;;;30.90;18.67;;;;;;;;;;5076255;28;20023;-75
2021/01/20 02:39:08;;;;;;;37.58;20.38;;;;;;;;;;5076227;28;20420;-73
2021/01/20 02:41:34;;;;;;;37.47;20.88;;;;;;;;;;5058555;28;20029;-73
2021/01/20 02:44:01;;;;;;;34.65;21.15;;;;;;;;;;5076331;28;20016;-73
2021/01/20 02:46:27;;;;;;;31.33;17.50;;;;;;;;;;5075769;28;20106;-73
2021/01/20 02:48:54;;;;;;;31.00;19.10;;;;;;;;;;5058348;28;20021;-73
2021/01/20 02:51:32;;;;;;;34.95;19.35;;;;;;;;;;5076196;28;20032;-74
2021/01/20 02:54:00;;;;;;;35.42;19.92;;;;;;;;;;5075550;28;20367;-75
2021/01/20 02:56:27;;;;;;;31.75;17.90;;;;;;;;;;5058332;28;20020;-74
2021/01/20 02:58:54;;;;;;;30.48;17.80;;;;;;;;;;5058161;28;20369;-75
2021/01/20 03:01:22;;;;;;;33.10;18.73;;;;;;;;;;5074364;28;20085;-74
2021/01/20 03:03:49;;;;;;;36.35;20.38;;;;;;;;;;5058230;28;20417;-73
2021/01/20 03:06:16;;;;;;;33.60;19.77;;;;;;;;;;5057975;28;20130;-74
2021/01/20 03:08:42;;;;;;;34.67;20.45;;;;;;;;;;5076642;28;20052;-74
2021/01/20 03:11:09;;;;;;;32.20;18.15;;;;;;;;;;5073498;28;20466;-73
2021/01/20 03:13:37;;;;;;;32.78;19.15;;;0.10;99.90;;;;;;5065499;28;20029;-73
2021/01/20 03:16:05;;;;;;;33.65;20.20;;;0.40;99.90;;;;;;5074686;28;20066;-74
2021/01/20 03:18:31;;;;;;;31.60;18.52;;;0.30;99.90;;;;;;5072382;28;20414;-72
2021/01/20 03:20:57;;;;;;;33.13;18.90;;;0.30;99.90;;;;;;5075536;28;20028;-72
2021/01/20 03:23:23;;;;;;;28.48;16.83;;;0.40;99.90;;;;;;5075460;28;20511;-73
2021/01/20 03:25:49;;;;;;;35.80;18.90;;;;;;;;;;5075515;28;20063;-72
2021/01/20 03:28:15;;;;;;;34.33;19.38;;;;;;;;;;5075103;28;20454;-72
2021/01/20 03:30:41;;;;;;;29.77;16.92;;;0.40;99.90;;;;;;5044940;28;20413;-71
2021/01/20 03:33:06;;;;;;;30.30;18.45;;;0.40;99.90;;;;;;5073757;28;20025;-71
2021/01/20 03:35:34;;;;;;;30.83;16.77;;;0.40;99.90;;;;;;5075007;28;20039;-72
2021/01/20 03:38:03;;;;;;;29.67;16.25;;;0.40;99.90;;;;;;5057433;28;20060;-73
2021/01/20 03:40:29;;;;;;;37.88;18.83;;;0.50;99.90;;;;;;5075307;28;20025;-72
2021/01/20 03:42:55;;;;;;;27.55;16.67;;;0.50;99.90;;;;;;5074986;28;20029;-72
2021/01/20 03:45:21;;;;;;;31.17;18.05;;;0.50;99.90;;;;;;5075275;28;20499;-72
2021/01/20 03:47:47;;;;;;;29.33;17.40;;;0.50;99.90;;;;;;5074954;28;20385;-72
2021/01/20 03:50:13;;;;;;;31.40;17.95;;;0.50;99.90;;;;;;5074685;28;20031;-73
2021/01/20 03:52:38;;;;;;;30.42;16.17;;;0.50;99.90;;;;;;5074890;28;20069;-72
2021/01/20 03:55:05;;;;;;;29.67;18.35;;;0.60;99.90;;;;;;5075003;28;20036;-72
2021/01/20 03:57:30;;;;;;;34.83;16.95;;;0.60;99.90;;;;;;5074928;28;20040;-71
2021/01/20 03:59:56;;;;;;;34.03;17.17;;;0.60;99.90;;;;;;5075244;28;20041;-72
2021/01/20 04:02:22;;;;;;;31.38;17.70;;;0.60;99.90;;;;;;5074719;28;20378;-72
2021/01/20 04:04:47;;;;;;;36.08;17.48;;;0.60;99.90;;;;;;5074383;28;20504;-72
2021/01/20 04:07:13;;;;;;;36.28;17.25;;;0.60;99.90;;;;;;5075049;28;20056;-72
2021/01/20 04:09:39;;;;;;;30.02;16.58;;;0.60;99.90;;;;;;5070677;28;20024;-72
2021/01/20 04:12:05;;;;;;;22.33;15.55;;;0.60;99.90;;;;;;5064615;28;20386;-73
2021/01/20 04:14:31;;;;;;;28.42;15.77;;;0.70;99.90;;;;;;5074895;28;20029;-72
2021/01/20 04:16:56;;;;;;;32.20;15.48;;;0.70;99.90;;;;;;5072052;28;20427;-73
2021/01/20 04:19:22;;;;;;;30.35;16.98;;;0.80;99.90;;;;;;5065762;28;20347;-72
2021/01/20 04:21:49;;;;;;;28.85;16.33;;;0.80;99.90;;;;;;5070983;28;20028;-73
2021/01/20 04:24:16;;;;;;;26.38;16.17;;;0.90;99.90;;;;;;5073908;28;20025;-71
2021/01/20 04:26:43;;;;;;;27.80;16.17;;;0.90;99.90;;;;;;5074523;28;20017;-72
2021/01/20 04:29:09;;;;;;;28.77;15.55;;;0.90;99.90;;;;;;5074446;28;20031;-73
2021/01/20 04:31:35;;;;;;;25.42;15.02;;;0.90;99.90;;;;;;5074846;28;20085;-73
2021/01/20 04:34:01;;;;;;;23.00;13.95;;;0.90;99.90;;;;;;5075519;28;20032;-73
2021/01/20 04:36:26;;;;;;;30.25;15.23;;;1.00;99.90;;;;;;5076547;28;20484;-73
2021/01/20 04:38:52;;;;;;;30.35;16.92;;;1.00;99.90;;;;;;5074095;28;20028;-72
2021/01/20 04:41:18;;;;;;;28.60;15.63;;;1.00;99.90;;;;;;5048989;28;20467;-73
2021/01/20 04:43:44;;;;;;;23.35;14.38;;;1.00;99.90;;;;;;5072246;28;20032;-73
2021/01/20 04:46:12;;;;;;;27.63;14.82;;;1.00;99.90;;;;;;5073756;28;20028;-73
2021/01/20 04:48:38;;;;;;;29.55;16.05;;;1.00;99.90;;;;;;5074029;28;20032;-72
2021/01/20 04:51:06;;;;;;;19.85;12.18;;;1.10;99.90;;;;;;5073783;28;20016;-73
2021/01/20 04:53:33;;;;;;;22.90;14.80;;;1.00;99.90;;;;;;5073635;28;20028;-75
2021/01/20 04:56:12;;;;;;;24.90;14.32;;;1.10;99.90;;;;;;5074128;28;20025;-72
2021/01/20 04:58:38;;;;;;;22.13;14.02;;;1.10;99.90;;;;;;5073893;28;20032;-72
2021/01/20 05:01:04;;;;;;;17.17;10.70;;;1.10;99.90;;;;;;5047827;28;20025;-74
2021/01/20 05:03:30;;;;;;;22.30;14.18;;;1.10;99.90;;;;;;5073528;28;20020;-72
2021/01/20 05:05:56;;;;;;;25.33;13.48;;;1.10;99.90;;;;;;5073316;28;20021;-73
2021/01/20 05:08:22;;;;;;;23.25;14.55;;;1.20;99.90;;;;;;5073849;28;20028;-73
2021/01/20 05:10:51;;;;;;;21.58;14.15;;;1.20;99.90;;;;;;5071885;28;20394;-73
2021/01/20 05:13:27;;;;;;;24.27;15.32;;;1.30;99.90;;;;;;5072024;28;20032;-74
2021/01/20 05:15:55;;;;;;;25.63;14.82;;;1.30;99.90;;;;;;5071621;28;20108;-70
2021/01/20 05:18:21;;;;;;;26.85;15.00;;;1.30;99.90;;;;;;5070256;28;20506;-72
2021/01/20 05:20:47;;;;;;;31.40;17.17;;;1.30;99.90;;;;;;5073135;28;20031;-74
2021/01/20 05:23:13;;;;;;;25.77;15.70;;;1.30;99.90;;;;;;5073259;28;20028;-73
2021/01/20 05:25:48;;;;;;;27.85;14.57;;;1.30;99.90;;;;;;5072786;28;20465;-72
2021/01/20 05:28:28;;;;;;;26.25;14.63;;;1.30;99.90;;;;;;5063887;28;20021;-71
2021/01/20 05:30:56;;;;;;;23.75;14.10;;;1.30;99.90;;;;;;5073245;28;20035;-72
2021/01/20 05:33:24;;;;;;;24.55;14.13;;;1.40;99.90;;;;;;5072668;28;20028;-72
2021/01/20 05:36:02;;;;;;;21.90;13.57;;;1.40;99.90;;;;;;5072834;28;20038;-72
2021/01/20 05:38:37;;;;;;;25.45;13.00;;;1.40;99.90;;;;;;5053134;28;20052;-72
2021/01/20 05:41:28;;;;;;;25.35;13.13;;;1.40;99.90;;;;;;5073024;28;20024;-71
2021/01/20 05:44:08;;;;;;;23.70;14.82;;;1.50;99.90;;;;;;5046538;28;20036;-72
2021/01/20 05:46:36;;;;;;;23.63;14.18;;;1.50;99.90;;;;;;5066052;28;20025;-72
2021/01/20 05:49:03;;;;;;;26.88;14.35;;;1.50;99.90;;;;;;5069066;28;20017;-71
2021/01/20 05:51:44;;;;;;;24.33;14.10;;;1.60;99.90;;;;;;5071693;28;20032;-74
2021/01/20 05:54:13;;;;;;;22.13;12.43;;;1.60;99.90;;;;;;5069365;28;20032;-73
2021/01/20 05:56:39;;;;;;;22.50;13.48;;;1.60;99.90;;;;;;5071842;28;20047;-73
2021/01/20 05:59:09;;;;;;;20.08;12.88;;;1.60;99.90;;;;;;5073052;28;20487;-73
2021/01/20 06:01:36;;;;;;;24.92;14.30;;;1.60;99.90;;;;;;5072879;28;20036;-72
2021/01/20 06:04:04;;;;;;;21.92;12.20;;;1.60;99.90;;;;;;5072835;28;20031;-74
2021/01/20 06:06:32;;;;;;;22.92;13.38;;;1.60;99.90;;;;;;5035073;28;20485;-71
2021/01/20 06:08:58;;;;;;;23.17;12.85;;;1.70;99.90;;;;;;5065115;28;20048;-72
2021/01/20 06:11:23;;;;;;;27.05;14.25;;;1.70;99.90;;;;;;5072412;28;20025;-73
2021/01/20 06:13:49;;;;;;;24.60;14.23;;;1.70;99.90;;;;;;5071467;28;20044;-72
2021/01/20 06:16:17;;;;;;;22.45;13.93;;;1.70;99.90;;;;;;5072305;28;20037;-73
2021/01/20 06:18:48;;;;;;;26.67;14.55;;;1.70;99.90;;;;;;5071792;28;20036;-72
2021/01/20 06:21:17;;;;;;;23.40;14.00;;;1.80;99.90;;;;;;5071028;28;20068;-73
2021/01/20 06:24:09;;;;;;;26.50;14.95;;;1.80;99.90;;;;;;5064252;28;20492;-73
2021/01/20 06:26:46;;;;;;;24.58;13.95;;;1.80;99.90;;;;;;5072503;28;20021;-72
2021/01/20 06:29:16;;;;;;;22.77;13.63;;;1.90;99.90;;;;;;5063920;28;20020;-74
2021/01/20 06:31:45;;;;;;;21.63;12.88;;;1.90;99.90;;;;;;5072300;28;20017;-71
2021/01/20 06:34:11;;;;;;;22.85;13.32;;;2.00;99.90;;;;;;5072652;28;20086;-72
2021/01/20 06:36:37;;;;;;;23.45;13.15;;;2.00;99.90;;;;;;5048829;28;20463;-73
2021/01/20 06:39:28;;;;;;;20.00;12.63;;;2.10;99.90;;;;;;5070972;28;20025;-73
2021/01/20 06:41:55;;;;;;;23.73;15.00;;;2.10;99.90;;;;;;5070349;28;21096;-72
2021/01/20 06:44:21;;;;;;;24.40;16.23;;;2.10;99.90;;;;;;5068313;28;20029;-72
2021/01/20 06:46:56;;;;;;;33.33;17.25;;;2.20;99.90;;;;;;5071930;28;20074;-73
2021/01/20 06:49:26;;;;;;;29.75;15.48;;;2.20;99.90;;;;;;5069761;28;20031;-73
2021/01/20 06:52:30;;;;;;;25.10;17.05;;;2.20;99.90;;;;;;5074215;28;20036;-73
2021/01/20 06:54:56;;;;;;;29.83;17.98;;;2.30;99.90;;;;;;4977261;28;20103;-72
2021/01/20 06:57:35;;;;;;;35.22;18.30;;;2.30;99.90;;;;;;4966695;28;20062;-72
2021/01/20 07:00:10;;;;;;;38.75;19.27;;;2.30;99.90;;;;;;4964209;28;20063;-73
2021/01/20 07:02:56;;;;;;;39.15;20.67;;;2.40;99.90;;;;;;4974699;28;20045;-73
2021/01/20 07:05:36;;;;;;;38.40;19.45;;;2.40;99.90;;;;;;4948100;29;20027;-73
2021/01/20 07:08:02;;;;;;;29.58;18.00;;;2.40;99.90;;;;;;4973143;28;20547;-72
2021/01/20 07:10:51;;;;;;;35.60;18.90;;;2.50;99.90;;;;;;4974648;28;20039;-73
2021/01/20 07:13:19;;;;;;;37.92;18.85;;;2.50;99.90;;;;;;4973617;28;20402;-72
2021/01/20 07:15:53;;;;;;;36.03;18.60;;;2.50;99.90;;;;;;4974284;28;20429;-71
2021/01/20 07:18:21;;;;;;;35.65;17.30;;;2.50;99.90;;;;;;4991147;28;20042;-72
2021/01/20 07:20:48;;;;;;;33.72;18.35;;;2.60;99.90;;;;;;4992813;28;20126;-71
2021/01/20 07:23:13;;;;;;;30.88;17.27;;;2.60;99.90;;;;;;4993772;28;20038;-73
2021/01/20 07:25:39;;;;;;;31.75;17.75;;;2.70;99.90;;;;;;5043797;28;20032;-72
2021/01/20 07:28:06;;;;;;;39.10;19.50;;;2.70;99.90;;;;;;5094746;28;20024;-75
2021/01/20 07:30:32;;;;;;;41.20;19.77;;;2.70;99.90;;;;;;5091554;28;20024;-74
2021/01/20 07:32:58;;;;;;;36.20;19.52;;;2.80;99.90;;;;;;5088901;28;20113;-78
2021/01/20 07:35:26;;;;;;;38.35;19.85;;;2.90;99.90;;;;;;5069225;28;20024;-74
2021/01/20 07:38:03;;;;;;;35.55;19.40;;;2.90;99.90;;;;;;5095268;28;20099;-75
2021/01/20 07:40:35;;;;;;;46.92;20.02;;;3.00;99.90;;;;;;5086547;28;20051;-72
2021/01/20 07:43:01;;;;;;;44.10;20.67;;;3.10;99.90;;;;;;5090853;28;20028;-73
2021/01/20 07:45:32;;;;;;;48.55;19.52;;;3.10;99.90;;;;;;5075939;28;20053;-73
2021/01/20 07:47:58;;;;;;;37.20;18.55;;;3.20;99.90;;;;;;5093846;28;20111;-73
2021/01/20 07:50:44;;;;;;;42.78;19.55;;;3.30;99.90;;;;;;5094143;28;20123;-71
2021/01/20 07:53:18;;;;;;;38.22;18.83;;;3.40;99.90;;;;;;5077361;28;20419;-74
2021/01/20 07:55:46;;;;;;;35.33;17.63;;;3.40;99.90;;;;;;5090972;28;20035;-73
2021/01/20 07:58:12;;;;;;;53.28;22.67;;;3.50;99.90;;;;;;5088337;28;20028;-73
2021/01/20 08:00:46;;;;;;;46.38;20.35;;;3.50;99.90;;;;;;5092963;28;20511;-73
2021/01/20 08:03:12;;;;;;;41.97;20.08;;;3.50;99.90;;;;;;5086218;28;20042;-74
2021/01/20 08:05:38;;;;;;;37.63;18.45;;;3.60;99.90;;;;;;5093812;28;20103;-72
2021/01/20 08:08:14;;;;;;;34.22;17.35;;;3.60;99.90;;;;;;5092609;28;20537;-75
2021/01/20 08:10:42;;;;;;;32.53;16.67;;;3.60;99.90;;;;;;5091474;28;20039;-72
2021/01/20 08:13:12;;;;;;;39.60;18.85;;;3.70;99.90;;;;;;5093909;28;20101;-73
2021/01/20 08:15:40;;;;;;;35.13;17.60;;;;;;;;;;5058179;28;20033;-75
2021/01/20 08:18:08;;;;;;;30.15;16.45;;;5.00;99.90;;;;;;5075367;28;20072;-81
2021/01/20 08:20:35;;;;;;;33.90;16.58;;;4.50;99.90;;;;;;5074308;28;20032;-75
2021/01/20 08:23:03;;;;;;;24.27;14.65;;;3.90;99.90;;;;;;5073092;28;20074;-76
2021/01/20 08:25:29;;;;;;;28.35;16.08;;;4.00;99.90;;;;;;5065506;28;20024;-75
2021/01/20 08:27:55;;;;;;;29.02;14.43;;;;;;;;;;5067247;28;20032;-76
2021/01/20 08:30:34;;;;;;;30.25;15.35;;;4.10;99.90;;;;;;5067986;28;20037;-76
2021/01/20 08:33:01;;;;;;;29.85;15.05;;;4.30;99.90;;;;;;5069299;28;20459;-76
2021/01/20 08:35:35;;;;;;;24.45;14.05;;;3.60;99.90;;;;;;5037292;28;20389;-75
2021/01/20 08:38:02;;;;;;;21.73;13.55;;;4.20;99.90;;;;;;5070945;28;20426;-75
2021/01/20 08:40:28;;;;;;;25.90;15.65;;;4.10;99.90;;;;;;5070027;28;20367;-77
2021/01/20 08:42:55;;;;;;;25.17;14.52;;;4.20;99.90;;;;;;5072471;28;20099;-78
2021/01/20 08:45:20;;;;;;;24.83;15.25;;;4.10;99.90;;;;;;5072506;28;20032;-76
2021/01/20 08:47:48;;;;;;;26.92;15.35;;;4.10;99.90;;;;;;5070914;28;20028;-75
2021/01/20 08:50:16;;;;;;;31.17;14.05;;;4.20;99.90;;;;;;5072431;28;20078;-73
2021/01/20 08:52:51;;;;;;;29.60;16.25;;;4.20;99.90;;;;;;5072793;28;20028;-76
2021/01/20 08:55:29;;;;;;;39.58;17.50;;;4.30;99.90;;;;;;5071370;28;20082;-75
2021/01/20 08:58:25;;;;;;;46.05;17.70;;;4.30;99.90;;;;;;5070220;28;20090;-74
2021/01/20 09:01:11;;;;;;;24.77;14.45;;;4.40;99.90;;;;;;5072258;28;20024;-73
2021/01/20 09:03:38;;;;;;;25.10;14.93;;;4.30;99.90;;;;;;5061764;28;20061;-72
2021/01/20 09:06:05;;;;;;;25.52;15.07;;;4.40;99.90;;;;;;5071902;28;20044;-73
2021/01/20 09:08:38;;;;;;;30.73;16.63;;;4.40;99.90;;;;;;5072899;28;20024;-72
2021/01/20 09:11:04;;;;;;;29.73;16.77;;;4.50;99.90;;;;;;5073336;28;20056;-73
2021/01/20 09:13:30;;;;;;;24.00;14.38;;;4.50;99.90;;;;;;5065653;28;20086;-73
2021/01/20 09:15:56;;;;;;;35.58;19.77;;;4.50;99.90;;;;;;5072818;28;20542;-74
2021/01/20 09:18:24;;;;;;;39.63;22.10;;;4.60;99.90;;;;;;5056725;28;20131;-73
2021/01/20 09:20:50;;;;;;;47.78;24.77;;;4.60;99.90;;;;;;5071939;28;20029;-74
2021/01/20 09:23:16;;;;;;;33.83;17.70;;;4.70;99.90;;;;;;5071070;28;20024;-74
2021/01/20 09:25:42;;;;;;;28.77;16.50;;;4.80;99.90;;;;;;5071841;28;20024;-76
2021/01/20 09:28:07;;;;;;;32.88;17.60;;;4.70;99.90;;;;;;5067229;28;20037;-74
2021/01/20 09:30:34;;;;;;;29.15;16.17;;;4.80;99.90;;;;;;5072278;28;20032;-75
2021/01/20 09:33:00;;;;;;;30.02;15.50;;;4.80;99.90;;;;;;5072239;28;20508;-78
2021/01/20 09:35:27;;;;;;;31.67;17.42;;;4.90;99.90;;;;;;5070078;28;20075;-75
2021/01/20 09:37:53;;;;;;;44.88;23.95;;;4.80;99.90;;;;;;5071983;28;20070;-74
2021/01/20 09:40:21;;;;;;;67.88;38.38;;;4.50;99.90;;;;;;5070441;28;20024;-72
2021/01/20 09:42:48;;;;;;;76.90;40.83;;;4.30;99.90;;;;;;5069267;28;20036;-74
2021/01/20 09:45:16;;;;;;;70.40;39.28;;;4.60;99.90;;;;;;5071747;28;20340;-73
2021/01/20 09:47:44;;;;;;;50.38;29.00;;;4.50;99.90;;;;;;5070770;28;20021;-74
2021/01/20 09:50:12;;;;;;;55.83;27.85;;;4.50;99.90;;;;;;5068944;28;20075;-74
2021/01/20 09:52:38;;;;;;;44.08;22.73;;;4.30;99.90;;;;;;5071461;28;20035;-75
2021/01/20 09:55:05;;;;;;;44.22;23.38;;;4.60;99.90;;;;;;5063487;28;20394;-72
2021/01/20 09:57:31;;;;;;;37.00;20.05;;;4.50;99.90;;;;;;5068359;28;20523;-75
2021/01/20 09:59:57;;;;;;;31.60;19.08;;;4.40;99.90;;;;;;5069079;28;20033;-75
2021/01/20 10:02:23;;;;;;;35.97;18.83;;;4.40;99.90;;;;;;5069858;28;20029;-75
2021/01/20 10:04:49;;;;;;;32.80;18.17;;;4.50;99.90;;;;;;5070798;28;20497;-75
2021/01/20 10:07:15;;;;;;;35.15;18.52;;;4.50;99.90;;;;;;5072261;28;20024;-74
2021/01/20 10:09:41;;;;;;;50.25;23.80;;;4.50;99.90;;;;;;5081341;28;20025;-73
2021/01/20 10:12:09;;;;;;;33.08;19.52;;;4.70;99.90;;;;;;5068439;28;20029;-74
2021/01/20 10:14:35;;;;;;;40.28;20.40;;;4.80;99.90;;;;;;5071344;28;20024;-74
2021/01/20 10:17:02;;;;;;;36.65;19.80;;;4.80;99.90;;;;;;5068965;28;20055;-74
2021/01/20 10:19:27;;;;;;;35.58;17.67;;;4.90;99.90;;;;;;5070722;28;20580;-72
2021/01/20 10:21:53;;;;;;;36.45;19.90;;;4.90;99.90;;;;;;5072603;28;20025;-74
2021/01/20 10:24:22;;;;;;;35.67;21.27;;;;;;;;;;5063167;28;20044;-73
2021/01/20 10:26:50;;;;;;;38.85;21.38;;;;;;;;;;5070410;28;20070;-73
2021/01/20 10:29:18;;;;;;;53.83;27.50;;;;;;;;;;5074024;28;20046;-74
2021/01/20 10:31:47;;;;;;;49.42;24.73;;;;;;;;;;5074999;28;20020;-74
2021/01/20 10:34:14;;;;;;;36.72;22.35;;;;;;;;;;5075420;28;20419;-74
2021/01/20 10:36:41;;;;;;;45.53;23.05;;;;;;;;;;5043871;28;20029;-75
2021/01/20 10:39:09;;;;;;;45.03;24.27;;;;;;;;;;5072571;28;20021;-74
2021/01/20 10:41:38;;;;;;;41.22;22.30;;;;;;;;;;5074088;28;20027;-74
2021/01/20 10:44:05;;;;;;;33.42;20.13;;;5.00;99.90;;;;;;5057650;28;20091;-74
2021/01/20 10:46:31;;;;;;;38.03;22.42;;;5.10;99.90;;;;;;5048938;28;20028;-74
2021/01/20 10:48:59;;;;;;;38.85;22.02;;;5.20;99.90;;;;;;5069619;28;20021;-76
2021/01/20 10:51:25;;;;;;;35.00;21.02;;;;;;;;;;5072462;28;20035;-71
2021/01/20 10:53:51;;;;;;;45.80;23.77;;;5.00;99.90;;;;;;5047273;28;20016;-75
2021/01/20 10:56:17;;;;;;;41.92;23.42;;;5.00;99.90;;;;;;5067953;28;20040;-73
2021/01/20 10:58:43;;;;;;;43.28;24.98;;;5.00;99.90;;;;;;5072954;28;20036;-78
2021/01/20 11:01:10;;;;;;;40.60;21.65;;;5.00;99.90;;;;;;5053147;28;20021;-75
2021/01/20 11:03:39;;;;;;;41.58;24.02;;;5.00;99.90;;;;;;5038026;28;20029;-74
2021/01/20 11:06:05;;;;;;;53.08;26.67;;;5.00;99.90;;;;;;5075746;28;20020;-73
2021/01/20 11:08:30;;;;;;;45.90;23.20;;;5.10;99.90;;;;;;5075297;28;20029;-75
2021/01/20 11:10:56;;;;;;;46.25;25.80;;;5.00;99.90;;;;;;5070859;28;20036;-72
2021/01/20 11:13:22;;;;;;;46.60;23.60;;;5.00;99.90;;;;;;5073207;28;20025;-71
2021/01/20 11:15:48;;;;;;;44.20;25.75;;;5.00;99.90;;;;;;5075092;28;20028;-72
2021/01/20 11:18:15;;;;;;;46.40;25.48;;;4.90;99.90;;;;;;5074691;28;20052;-73
2021/01/20 11:20:42;;;;;;;54.50;26.30;;;4.80;99.90;;;;;;5048086;28;20401;-76
2021/01/20 11:23:12;;;;;;;46.35;27.52;;;4.80;99.90;;;;;;5072235;28;20086;-72
2021/01/20 11:25:45;;;;;;;47.72;24.88;;;4.70;99.90;;;;;;5074931;28;20044;-71
2021/01/20 11:28:11;;;;;;;43.55;24.10;;;4.70;99.90;;;;;;5062993;28;20065;-75
2021/01/20 11:30:37;;;;;;;52.75;26.92;;;4.80;99.90;;;;;;5062777;28;20132;-75
2021/01/20 11:33:03;;;;;;;54.13;28.13;;;4.70;99.90;;;;;;5059156;28;20463;-74
2021/01/20 11:35:29;;;;;;;54.00;27.30;;;4.80;99.90;;;;;;5055908;28;20096;-73
2021/01/20 11:37:56;;;;;;;55.33;27.52;;;4.80;99.90;;;;;;5076167;28;20033;-74
2021/01/20 11:40:30;;;;;;;51.58;25.88;;;4.90;99.90;;;;;;5053968;28;20035;-73
2021/01/20 11:42:59;;;;;;;49.72;27.98;;;4.90;99.90;;;;;;5067673;28;20025;-73
2021/01/20 11:45:31;;;;;;;50.15;25.02;;;4.80;99.90;;;;;;5073927;28;20544;-74
2021/01/20 11:47:57;;;;;;;41.28;23.52;;;4.80;99.90;;;;;;5074948;28;20421;-72
2021/01/20 11:50:25;;;;;;;38.38;22.73;;;4.70;99.90;;;;;;5074506;28;20024;-73
2021/01/20 11:52:51;;;;;;;33.72;21.35;;;4.70;99.90;;;;;;5056318;28;20393;-73
2021/01/20 11:55:18;;;;;;;38.78;22.80;;;4.70;99.90;;;;;;5074474;28;20029;-74
2021/01/20 11:57:44;;;;;;;46.70;22.63;;;4.80;99.90;;;;;;5070903;28;20106;-72
2021/01/20 12:00:11;;;;;;;38.35;23.05;;;4.80;99.90;;;;;;5066852;28;20029;-73
2021/01/20 12:02:37;;;;;;;38.05;23.75;;;4.80;99.90;;;;;;5072175;28;20028;-73
2021/01/20 12:05:05;;;;;;;37.83;22.65;;;4.70;99.90;;;;;;5073889;28;20048;-73
2021/01/20 12:07:31;;;;;;;48.58;23.98;;;4.70;99.90;;;;;;5073828;28;20033;-73
2021/01/20 12:09:57;;;;;;;45.10;23.35;;;4.70;99.90;;;;;;5073915;28;20061;-74
2021/01/20 12:12:23;;;;;;;40.88;23.70;;;4.70;99.90;;;;;;5073780;28;20137;-75
2021/01/20 12:14:49;;;;;;;43.67;25.40;;;4.70;99.90;;;;;;5072017;28;20522;-75
2021/01/20 12:17:14;;;;;;;45.03;25.35;;;4.70;99.90;;;;;;5073718;28;20056;-74
2021/01/20 12:19:40;;;;;;;45.42;25.65;;;4.90;99.90;;;;;;5073903;28;20023;-72
2021/01/20 12:22:06;;;;;;;38.97;22.48;;;4.90;99.90;;;;;;5074791;28;20028;-72
2021/01/20 12:24:33;;;;;;;38.45;24.67;;;4.90;99.90;;;;;;5073491;28;20028;-73
2021/01/20 12:26:59;;;;;;;47.03;25.20;;;4.90;99.90;;;;;;5051087;28;20035;-74
2021/01/20 12:29:25;;;;;;;48.15;23.35;;;4.90;99.90;;;;;;5052986;28;20032;-72
2021/01/20 12:31:51;;;;;;;38.90;22.77;;;4.90;99.90;;;;;;5066551;28;20078;-72
2021/01/20 12:34:17;;;;;;;39.78;22.13;;;4.90;99.90;;;;;;5072190;28;20171;-73
2021/01/20 12:36:45;;;;;;;36.55;21.25;;;4.80;99.90;;;;;;5072114;28;20386;-72
2021/01/20 12:39:11;;;;;;;34.75;20.02;;;4.90;99.90;;;;;;5073994;28;20102;-71
2021/01/20 12:41:36;;;;;;;40.60;24.65;;;4.80;99.90;;;;;;5069580;28;20474;-72
2021/01/20 12:44:02;;;;;;;43.92;24.33;;;4.90;99.90;;;;;;5073057;28;20021;-71
2021/01/20 12:46:28;;;;;;;43.70;24.83;;;4.90;99.90;;;;;;5074099;28;20021;-71
2021/01/20 12:48:53;;;;;;;40.60;22.50;;;5.00;99.90;;;;;;5073047;28;20463;-72
2021/01/20 12:51:19;;;;;;;40.55;22.90;;;5.00;99.90;;;;;;5048248;28;20365;-72
2021/01/20 12:53:45;;;;;;;39.95;22.50;;;5.00;99.90;;;;;;5070286;28;20032;-71
2021/01/20 12:56:11;;;;;;;46.78;23.48;;;5.00;99.90;;;;;;5054914;28;20031;-71
2021/01/20 12:58:36;;;;;;;38.53;21.15;;;5.00;99.90;;;;;;5046103;28;20057;-72
2021/01/20 13:01:02;;;;;;;36.70;22.55;;;5.00;99.90;;;;;;5072886;28;20024;-72
2021/01/20 13:03:28;;;;;;;37.35;21.42;;;4.90;99.90;;;;;;5050981;28;20119;-72
2021/01/20 13:05:53;;;;;;;38.95;21.85;;;4.90;99.90;;;;;;5072191;28;20390;-71
2021/01/20 13:08:19;;;;;;;39.30;21.25;;;4.90;99.90;;;;;;5072154;28;20025;-71